Time,TemperatureF,DewpointF,PressureIn,WindDirection,WindDirectionDegrees,WindSpeedMPH,WindSpeedGustMPH,Humidity,HourlyPrecipIn,Conditions,Clouds,dailyrainin,SolarRadiationWatts/m^2,SoftwareType,DateUTC
2016-07-26 00:03:00,82.2,78.4,30.07,North,358,0.0,0.0,88,0.00,,,0.00,0.00,Weather logger V3.0.,2016-07-26 04:03:00,
2016-07-26 00:08:00,82.4,78.8,30.07,North,2,0.0,0.0,89,0.00,,,0.00,0.00,Weather logger V3.0.,2016-07-26 04:08:00,
2016-07-26 00:13:00,82.4,79.2,30.07,NE,52,0.0,0.0,90,0.00,,,0.00,0.00,Weather logger V3.0.,2016-07-26 04:13:00,
2016-07-26 00:18:00,82.4,78.6,30.07,NE,51,0.0,0.0,88,0.00,,,0.00,0.00,Weather logger V3.0.,2016-07-26 04:18:00,
2016-07-26 00:23:00,82.4,78.8,30.07,NE,37,0.0,0.0,89,0.00,,,0.00,0.00,Weather logger V3.0.,2016-07-26 04:23:00,
2016-07-26 00:28:00,82.4,78.8,30.07,NE,37,0.0,0.0,89,0.00,,,0.00,0.00,Weather logger V3.0.,2016-07-26 04:28:00,
2016-07-26 00:34:00,82.2,78.6,30.07,NNE,32,0.0,0.0,89,0.00,,,0.00,0.00,Weather logger V3.0.,2016-07-26 04:34:00,
2016-07-26 00:39:00,82.2,78.6,30.07,NE,34,0.0,0.0,89,0.00,,,0.00,0.00,Weather logger V3.0.,2016-07-26 04:39:00,
2016-07-26 00:44:00,82.0,78.4,30.07,NE,34,0.0,0.0,89,0.00,,,0.00,0.00,Weather logger V3.0.,2016-07-26 04:44:00,
2016-07-26 00:49:00,82.0,78.4,30.08,NE,37,0.0,0.0,89,0.00,,,0.00,0.00,Weather logger V3.0.,2016-07-26 04:49:00,
2016-07-26 00:54:00,82.0,78.4,30.08,NNE,32,0.0,0.0,89,0.00,,,0.00,0.00,Weather logger V3.0.,2016-07-26 04:54:00,
2016-07-26 00:59:00,81.9,78.4,30.07,NE,40,0.0,0.0,89,0.00,,,0.00,0.00,Weather logger V3.0.,2016-07-26 04:59:00,
2016-07-26 01:04:00,81.9,78.4,30.07,NE,40,0.0,0.0,89,0.00,,,0.00,0.00,Weather logger V3.0.,2016-07-26 05:04:00,
2016-07-26 01:09:00,81.7,78.3,30.07,NE,40,0.0,0.0,89,0.00,,,0.00,0.00,Weather logger V3.0.,2016-07-26 05:09:00,
2016-07-26 01:14:00,81.5,78.3,30.07,NE,38,0.0,0.0,90,0.00,,,0.00,0.00,Weather logger V3.0.,2016-07-26 05:14:00,
2016-07-26 01:19:00,81.5,78.3,30.08,NE,38,0.0,0.0,90,0.00,,,0.00,0.00,Weather logger V3.0.,2016-07-26 05:19:00,
2016-07-26 01:24:00,81.5,78.3,30.07,NE,35,0.0,0.0,90,0.00,,,0.00,0.00,Weather logger V3.0.,2016-07-26 05:24:00,
2016-07-26 01:29:00,81.5,78.3,30.07,NE,35,0.0,0.0,90,0.00,,,0.00,0.00,Weather logger V3.0.,2016-07-26 05:29:00,
2016-07-26 01:34:00,81.5,78.3,30.07,NNE,32,0.0,0.0,90,0.00,,,0.00,0.00,Weather logger V3.0.,2016-07-26 05:34:00,
2016-07-26 01:39:00,81.5,78.3,30.07,NNE,33,0.0,0.0,90,0.00,,,0.00,0.00,Weather logger V3.0.,2016-07-26 05:39:00,
2016-07-26 01:44:00,81.5,78.3,30.07,NE,34,0.0,0.0,90,0.00,,,0.00,0.00,Weather logger V3.0.,2016-07-26 05:44:00,
2016-07-26 01:50:00,81.7,78.4,30.06,NE,35,0.0,0.0,90,0.00,,,0.00,0.00,Weather logger V3.0.,2016-07-26 05:50:00,
2016-07-26 01:55:00,81.7,78.4,30.07,NNE,28,0.0,0.0,90,0.00,,,0.00,0.00,Weather logger V3.0.,2016-07-26 05:55:00,
2016-07-26 02:00:00,81.7,78.4,30.06,NNE,32,0.0,0.0,90,0.00,,,0.00,0.00,Weather logger V3.0.,2016-07-26 06:00:00,
2016-07-26 02:05:00,81.7,78.4,30.06,NE,34,0.0,0.0,90,0.00,,,0.00,0.00,Weather logger V3.0.,2016-07-26 06:05:00,
2016-07-26 02:10:00,81.7,78.4,30.07,NNE,28,0.0,0.0,90,0.00,,,0.00,0.00,Weather logger V3.0.,2016-07-26 06:10:00,
2016-07-26 02:15:00,81.9,78.6,30.07,WNW,285,0.0,0.0,90,0.00,,,0.00,0.00,Weather logger V3.0.,2016-07-26 06:15:00,
2016-07-26 02:20:00,81.9,78.4,30.07,SSE,156,0.0,0.0,89,0.00,,,0.00,0.00,Weather logger V3.0.,2016-07-26 06:20:00,
2016-07-26 02:25:00,81.7,77.2,30.07,East,84,0.0,0.0,86,0.00,,,0.00,0.00,Weather logger V3.0.,2016-07-26 06:25:00,
2016-07-26 02:30:00,81.7,77.2,30.06,NE,39,0.0,0.0,86,0.00,,,0.00,0.00,Weather logger V3.0.,2016-07-26 06:30:00,
2016-07-26 02:35:00,81.3,77.5,30.06,NNE,33,0.0,0.0,88,0.07,,,0.01,0.00,Weather logger V3.0.,2016-07-26 06:35:00,
2016-07-26 02:40:00,81.1,77.7,30.06,East,87,0.0,0.0,89,0.07,,,0.01,0.00,Weather logger V3.0.,2016-07-26 06:40:00,
2016-07-26 02:45:00,81.0,77.7,30.06,NE,38,0.0,0.0,90,0.00,,,0.01,0.00,Weather logger V3.0.,2016-07-26 06:45:00,
2016-07-26 02:50:00,81.0,78.1,30.06,NNW,338,0.0,0.0,91,0.00,,,0.01,0.00,Weather logger V3.0.,2016-07-26 06:50:00,
2016-07-26 02:55:00,80.8,77.9,30.06,North,2,0.0,0.0,91,0.00,,,0.01,0.00,Weather logger V3.0.,2016-07-26 06:55:00,
2016-07-26 03:00:00,80.8,78.3,30.06,NNE,31,0.0,0.0,92,0.00,,,0.01,0.00,Weather logger V3.0.,2016-07-26 07:00:00,
2016-07-26 03:06:00,80.6,78.1,30.06,NNE,29,0.0,0.0,92,0.00,,,0.01,0.00,Weather logger V3.0.,2016-07-26 07:06:00,